Wheelock, Texas
Current Conditions -  °F | °C
As of 8:55 PM on Wednesday 22 Oct 2014 (Local Time) from KCFD Reporting Station
Clear Clear  
Wind Chill: 66°   Ceiling: Unl
Heat Index: 66°   Visibility: 10mi
Dew Point: 58°   Wind: 5mph
Humidity: 77%   Direction: 90°E
Pressure: 30.11"   Gusts: NA
Location:  30.9°N, 96.39°W
Report Text: KCFD 230155Z AUTO 09004KT 10SM CLR 19/15 A3011 RMK AO2 T01870145
Loading
Personal Weather Stations






























Interactive Weather Map
Tropical Storm Tracking
New forecast layout! Learn more

10-Day Weather Forecast

Advertisements
Track Severe Weather on mobile